Time;durP1;ratioP1;P1;durP2;ratioP2;P2;SDS_P1;SDS_P2;PMS_P1;PMS_P2;Temp;Humidity;BMP_temperature;BMP_pressure;BME280_temperature;BME280_humidity;BME280_pressure;Samples;Min_cycle;Max_cycle;Signal;HPM_P1;HPM_P2
2023/07/10 00:00:24;;;;;;;10.40;4.95;;;;;;;20.31;47.06;101255.38;5065967;28;20044;-61
2023/07/10 00:02:51;;;;;;;7.55;4.80;;;;;;;20.34;47.30;101252.25;5066209;28;20049;-61
2023/07/10 00:05:19;;;;;;;7.38;4.93;;;;;;;20.28;47.53;101250.38;5066668;28;20076;-60
2023/07/10 00:07:46;;;;;;;8.65;4.75;;;;;;;20.26;47.39;101252.47;5064286;28;20049;-61
2023/07/10 00:10:15;;;;;;;9.10;5.03;;;;;;;20.30;47.79;101242.00;5065798;28;20071;-61
2023/07/10 00:12:43;;;;;;;8.02;4.60;;;;;;;20.25;47.71;101239.91;5065706;28;20102;-62
2023/07/10 00:15:16;;;;;;;8.05;4.15;;;;;;;20.16;47.60;101242.00;5065560;28;20061;-61
2023/07/10 00:17:45;;;;;;;12.30;4.85;;;;;;;20.16;48.17;101249.34;5065488;28;20049;-61
2023/07/10 00:20:14;;;;;;;8.50;4.68;;;;;;;20.17;47.97;101245.56;5065246;28;20079;-61
2023/07/10 00:22:41;;;;;;;11.27;5.30;;;;;;;20.20;48.17;101254.16;5065081;28;20040;-61
2023/07/10 00:25:08;;;;;;;13.85;5.20;;;;;;;20.26;48.75;101252.47;5065827;28;20041;-60
2023/07/10 00:27:35;;;;;;;11.95;4.80;;;;;;;20.31;48.88;101252.66;5065006;28;20040;-60
2023/07/10 00:30:02;;;;;;;10.45;5.13;;;;;;;20.36;49.41;101257.50;5064529;28;20049;-61
2023/07/10 00:32:28;;;;;;;6.88;4.20;;;;;;;20.38;48.94;101253.50;5065413;28;20072;-61
2023/07/10 00:34:55;;;;;;;14.02;4.47;;;;;;;20.32;47.71;101251.63;5065806;28;20048;-60
2023/07/10 00:37:22;;;;;;;10.73;4.45;;;;;;;20.24;47.58;101260.00;5065742;28;20058;-61
2023/07/10 00:39:48;;;;;;;6.13;3.90;;;;;;;20.26;51.01;101257.91;5065767;28;20049;-62
2023/07/10 00:42:22;;;;;;;8.40;4.88;;;;;;;20.28;49.18;101277.63;5064797;28;20048;-60
2023/07/10 00:44:54;;;;;;;9.23;4.75;;;;;;;20.33;50.55;101288.72;5065451;28;20095;-61
2023/07/10 00:47:29;;;;;;;6.43;4.28;;;;;;;20.35;50.72;101285.78;5065328;28;20045;-61
2023/07/10 00:50:08;;;;;;;8.27;4.28;;;;;;;20.34;51.94;101303.19;5065673;28;20079;-61
2023/07/10 00:52:39;;;;;;;7.03;4.57;;;;;;;20.32;51.86;101321.66;5065520;28;20066;-62
2023/07/10 00:55:23;;;;;;;;;;;;;;;20.34;51.96;101334.00;5065747;28;20056;-60
2023/07/10 00:57:58;;;;;;;5.47;4.05;;;;;;;20.32;51.83;101357.91;5065447;28;19920;-61
2023/07/10 01:00:25;;;;;;;8.48;4.30;;;;;;;20.33;51.54;101362.28;5065711;28;20048;-61
2023/07/10 01:02:51;;;;;;;5.32;4.50;;;;;;;20.32;51.55;101355.19;5065684;28;20056;-62
2023/07/10 01:09:08;;;;;;;6.03;4.13;;;;;;;20.34;51.76;101331.25;5065122;28;20068;-60
2023/07/10 01:11:36;;;;;;;7.00;4.22;;;;;;;20.32;52.26;101338.84;5064873;28;20044;-60
2023/07/10 01:14:05;;;;;;;6.75;4.43;;;;;;;20.27;52.63;101352.22;5065634;28;20049;-60
2023/07/10 01:16:32;;;;;;;8.00;4.65;;;;;;;20.26;52.46;101356.00;5065849;28;20132;-61
2023/07/10 01:18:59;;;;;;;6.45;4.70;;;;;;;20.32;51.71;101338.00;5065574;28;20049;-61
2023/07/10 01:21:30;;;;;;;6.28;4.55;;;;;;;20.26;51.74;101331.47;5065572;28;20464;-60
2023/07/10 01:24:00;;;;;;;11.63;5.00;;;;;;;20.22;51.64;101338.41;5065535;28;20060;-62
2023/07/10 01:26:28;;;;;;;6.60;4.35;;;;;;;20.20;52.85;101324.97;5064993;28;20064;-61
2023/07/10 01:28:57;;;;;;;7.43;4.60;;;;;;;20.21;53.01;101320.38;5065054;28;20406;-61
2023/07/10 01:31:26;;;;;;;11.60;4.43;;;;;;;20.16;52.60;101312.81;5065030;28;20048;-61
2023/07/10 01:34:00;;;;;;;10.07;5.18;;;;;;;20.12;53.23;101305.28;5067952;28;20053;-61
2023/07/10 01:36:32;;;;;;;6.70;4.50;;;;;;;20.11;53.75;101296.28;5068598;28;20394;-60
2023/07/10 01:39:18;;;;;;;8.15;4.88;;;;;;;20.06;55.34;101285.16;5069416;28;20114;-60
2023/07/10 01:41:45;;;;;;;7.18;4.93;;;;;;;20.02;57.05;101283.91;5069409;28;20049;-60
2023/07/10 01:44:18;;;;;;;6.18;4.85;;;;;;;20.07;58.67;101275.94;5068391;28;20075;-60
2023/07/10 01:46:44;;;;;;;26.42;5.75;;;;;;;19.92;60.71;101276.16;5068472;28;20049;-61
2023/07/10 01:49:11;;;;;;;7.22;4.47;;;;;;;19.87;61.04;101264.22;5068481;28;20045;-60
2023/07/10 01:51:38;;;;;;;12.43;4.80;;;;;;;19.70;60.78;101258.34;5068784;28;20045;-61
2023/07/10 01:54:05;;;;;;;8.10;4.85;;;;;;;19.47;62.64;101247.81;5069081;28;20049;-61
2023/07/10 01:56:33;;;;;;;12.23;5.30;;;;;;;19.32;62.81;101228.94;5068883;28;20041;-61
2023/07/10 01:58:59;;;;;;;10.75;5.30;;;;;;;19.36;65.64;101230.22;5068267;28;20075;-61
2023/07/10 02:01:26;;;;;;;14.50;4.88;;;;;;;19.39;66.22;101227.09;5068562;28;20044;-61
2023/07/10 02:03:53;;;;;;;7.57;5.00;;;;;;;19.42;67.73;101228.56;5069314;28;20055;-61
2023/07/10 02:06:21;;;;;;;14.07;4.88;;;;;;;19.51;69.50;101224.56;5068014;28;20051;-62
2023/07/10 02:08:48;;;;;;;10.50;5.13;;;;;;;19.49;70.24;101219.34;5069263;28;20045;-61
2023/07/10 02:11:14;;;;;;;7.13;5.25;;;;;;;19.47;70.23;101210.53;5069013;28;20076;-61
2023/07/10 02:13:41;;;;;;;10.80;4.80;;;;;;;19.39;70.88;101205.31;5068355;28;20101;-61
2023/07/10 02:16:10;;;;;;;8.57;5.22;;;;;;;19.30;71.63;101197.53;5069286;28;20128;-60
2023/07/10 02:18:37;;;;;;;9.85;4.75;;;;;;;19.33;70.46;101186.25;5068065;28;20041;-60
2023/07/10 02:21:04;;;;;;;8.32;5.10;;;;;;;19.29;69.72;101185.00;5068736;28;20052;-60
2023/07/10 02:23:31;;;;;;;12.48;5.45;;;;;;;19.35;71.49;101198.63;5068419;28;20044;-61
2023/07/10 02:25:58;;;;;;;8.93;5.07;;;;;;;19.31;71.76;101193.78;5066897;28;20049;-61
2023/07/10 02:28:24;;;;;;;16.60;5.28;;;;;;;19.39;70.94;101196.31;5067233;28;20045;-61
2023/07/10 02:30:51;;;;;;;8.27;5.10;;;;;;;19.44;70.84;101200.06;5067986;28;20052;-62
2023/07/10 02:33:19;;;;;;;9.25;5.40;;;;;;;19.38;68.69;101190.03;5068563;28;20048;-61
2023/07/10 02:35:46;;;;;;;6.75;4.75;;;;;;;19.39;68.75;101186.28;5067487;28;20049;-61
2023/07/10 02:38:13;;;;;;;7.03;4.53;;;;;;;19.39;68.19;101180.00;5067843;28;20075;-60
2023/07/10 02:40:42;;;;;;;10.02;5.03;;;;;;;19.35;67.71;101179.56;5068294;28;20053;-61
2023/07/10 02:43:09;;;;;;;9.75;4.72;;;;;;;19.34;67.17;101171.59;5067434;28;20049;-60
2023/07/10 02:45:36;;;;;;;9.95;5.07;;;;;;;19.35;65.98;101174.13;5066262;28;20045;-60
2023/07/10 02:48:03;;;;;;;13.65;5.00;;;;;;;19.32;66.17;101174.53;5066576;28;20052;-60
2023/07/10 02:50:30;;;;;;;13.52;5.03;;;;;;;19.23;65.33;101170.34;5066954;28;20098;-60
2023/07/10 02:52:56;;;;;;;8.38;4.50;;;;;;;19.18;64.28;101162.81;5066702;28;20424;-61
2023/07/10 02:55:23;;;;;;;14.27;5.45;;;;;;;19.17;64.35;101161.13;5067695;28;20044;-62
2023/07/10 02:57:49;;;;;;;8.07;4.93;;;;;;;19.14;65.93;101156.09;5067087;28;20048;-61
2023/07/10 03:00:16;;;;;;;12.02;4.57;;;;;;;19.09;66.01;101146.88;5067643;28;20108;-61
2023/07/10 03:02:43;;;;;;;6.68;4.38;;;;;;;19.06;66.17;101142.69;5066808;28;20072;-61
2023/07/10 03:05:10;;;;;;;8.88;4.97;;;;;;;18.99;65.42;101141.84;5067187;28;20053;-60
2023/07/10 03:07:36;;;;;;;10.27;4.85;;;;;;;18.93;64.68;101135.34;5066682;28;20044;-60
2023/07/10 03:10:04;;;;;;;9.18;4.55;;;;;;;18.85;63.75;101119.19;5066458;28;20048;-61
2023/07/10 03:12:30;;;;;;;8.63;4.93;;;;;;;18.81;64.20;101112.47;5067310;28;20417;-60
2023/07/10 03:14:57;;;;;;;6.35;4.07;;;;;;;18.79;64.07;101104.56;5066442;28;20079;-61
2023/07/10 03:17:23;;;;;;;8.05;4.47;;;;;;;18.85;64.17;101097.44;5066651;28;20067;-61
2023/07/10 03:19:50;;;;;;;9.07;4.00;;;;;;;18.84;63.64;101103.09;5066875;28;20079;-61
2023/07/10 03:22:17;;;;;;;10.45;4.90;;;;;;;18.82;63.89;101111.44;5066174;28;20118;-60
2023/07/10 03:24:43;;;;;;;9.35;4.30;;;;;;;18.86;63.90;101107.28;5067049;28;20045;-62
2023/07/10 03:27:10;;;;;;;9.07;4.35;;;;;;;18.95;63.79;101108.78;5066148;28;20463;-60
2023/07/10 03:29:36;;;;;;;9.40;4.63;;;;;;;18.86;64.13;101104.56;5065841;28;20041;-59
2023/07/10 03:32:06;;;;;;;8.00;4.82;;;;;;;18.80;64.71;101110.81;5064928;28;20039;-60
2023/07/10 03:34:33;;;;;;;9.80;4.25;;;;;;;18.74;65.69;101103.47;5065859;28;20040;-61
2023/07/10 03:37:03;;;;;;;6.97;4.38;;;;;;;18.78;65.70;101112.91;5065596;28;20064;-60
2023/07/10 03:39:30;;;;;;;6.15;4.55;;;;;;;18.71;67.22;101106.59;5064809;28;20055;-60
2023/07/10 03:41:56;;;;;;;7.93;4.32;;;;;;;18.84;66.80;101103.09;5064638;28;20091;-59
2023/07/10 03:44:23;;;;;;;8.52;4.72;;;;;;;18.93;66.66;101104.59;5064388;28;20041;-60
2023/07/10 03:46:49;;;;;;;6.65;4.65;;;;;;;18.96;66.82;101104.19;5064497;28;20175;-60
2023/07/10 03:49:17;;;;;;;6.22;4.57;;;;;;;19.07;65.48;101111.75;5065213;28;20405;-61
2023/07/10 03:51:43;;;;;;;8.18;3.97;;;;;;;19.10;66.39;101103.16;5064610;28;20095;-61
2023/07/10 03:54:10;;;;;;;6.85;4.28;;;;;;;19.03;67.05;101099.59;5064641;28;20052;-61
2023/07/10 03:56:36;;;;;;;9.40;4.35;;;;;;;19.04;66.99;101092.28;5062950;28;20044;-60
2023/07/10 03:59:07;;;;;;;8.20;4.55;;;;;;;19.05;67.78;101096.69;5063324;28;20064;-61
2023/07/10 04:01:34;;;;;;;12.88;4.72;;;;;;;19.10;67.25;101089.56;5063384;28;20068;-61
2023/07/10 04:04:01;;;;;;;8.50;4.70;;;;;;;18.97;68.21;101081.41;5063189;28;20049;-61
2023/07/10 04:06:27;;;;;;;7.60;4.32;;;;;;;18.79;69.47;101087.38;5063330;28;20061;-60
2023/07/10 04:08:58;;;;;;;8.65;5.03;;;;;;;18.84;69.81;101078.63;5063583;28;20064;-60
2023/07/10 04:11:25;;;;;;;8.75;4.30;;;;;;;18.85;69.34;101083.00;5063354;28;20394;-59
2023/07/10 04:13:52;;;;;;;6.80;4.10;;;;;;;18.83;69.92;101077.78;5063101;28;20049;-61
2023/07/10 04:16:25;;;;;;;9.38;4.80;;;;;;;18.98;69.03;101075.75;5062764;28;20113;-60
2023/07/10 04:18:53;;;;;;;10.70;4.35;;;;;;;18.76;70.81;101071.50;5062745;28;20048;-61
2023/07/10 04:21:24;;;;;;;10.38;4.70;;;;;;;18.62;71.75;101065.22;5061965;28;20094;-61
2023/07/10 04:23:51;;;;;;;15.55;4.68;;;;;;;18.61;72.65;101062.69;5063102;28;20049;-61
2023/07/10 04:26:22;;;;;;;8.43;4.35;;;;;;;18.50;72.99;101064.13;5063405;28;20049;-61
2023/07/10 04:28:51;;;;;;;9.82;4.10;;;;;;;18.58;73.07;101050.31;5062892;28;20049;-60
2023/07/10 04:31:18;;;;;;;6.88;4.20;;;;;;;18.62;71.90;101051.63;5063727;28;20131;-61
2023/07/10 04:33:45;;;;;;;8.13;4.35;;;;;;;18.61;71.67;101052.63;5063363;28;20075;-61
2023/07/10 04:36:12;;;;;;;6.70;4.07;;;;;;;18.48;72.21;101044.44;5065293;28;20071;-61
2023/07/10 04:38:39;;;;;;;10.43;4.57;;;;;;;18.48;72.65;101047.16;5064624;28;20049;-62
2023/07/10 04:41:09;;;;;;;10.63;4.38;;;;;;;18.55;73.50;101042.63;5064775;28;20107;-62
2023/07/10 04:43:36;;;;;;;9.83;4.20;;;;;;;18.52;73.51;101043.84;5065143;28;20095;-62
2023/07/10 04:46:06;;;;;;;7.70;4.50;;;;;;;18.76;74.22;101055.19;5065187;28;20464;-60
2023/07/10 04:48:33;;;;;;;9.90;5.43;;;;;;;18.76;76.50;101066.06;5066852;28;20040;-61
2023/07/10 04:51:03;;;;;;;12.30;4.47;;;;;;;18.79;76.42;101069.22;5067290;28;20496;-61
2023/07/10 04:53:31;;;;;;;10.52;5.15;;;;;;;18.86;77.69;101082.81;5065925;28;20051;-61
2023/07/10 04:56:00;;;;;;;9.73;5.90;;;;;;;19.13;75.37;101093.75;5067117;28;20049;-61
2023/07/10 04:58:30;;;;;;;16.45;9.70;;;;;;;19.19;73.49;101101.91;5066111;28;20075;-61
2023/07/10 05:00:58;;;;;;;9.27;5.32;;;;;;;19.33;72.40;101094.59;5066107;28;20053;-62
2023/07/10 05:03:26;;;;;;;8.93;4.50;;;;;;;19.41;69.56;101086.22;5065548;28;20045;-62
2023/07/10 05:05:57;;;;;;;11.32;4.88;;;;;;;19.18;71.58;101102.97;5066770;28;20059;-61
2023/07/10 05:08:25;;;;;;;8.93;5.28;;;;;;;19.15;71.49;101108.00;5067322;28;20052;-60
2023/07/10 05:10:54;;;;;;;9.88;4.40;;;;;;;19.21;71.73;101139.81;5070292;28;20493;-61
2023/07/10 05:13:23;;;;;;;14.40;5.43;;;;;;;19.26;73.22;101150.88;5069419;28;20091;-62
2023/07/10 05:15:50;;;;;;;12.25;4.95;;;;;;;19.26;71.87;101145.44;5070435;28;20049;-61
2023/07/10 05:18:17;;;;;;;11.57;5.10;;;;;;;19.22;76.80;101147.75;5070352;28;20099;-61
2023/07/10 05:20:46;;;;;;;9.48;4.85;;;;;;;19.24;78.28;101183.75;5070382;28;20051;-61
2023/07/10 05:23:13;;;;;;;17.83;5.32;;;;;;;19.33;95.08;101262.44;5069527;28;20048;-62
2023/07/10 05:25:39;;;;;;;20.65;4.97;;;;;;;19.19;100.00;101299.63;5065670;28;20094;-62
2023/07/10 05:28:06;;;;;;;12.15;4.80;;;;;;;19.10;100.00;101263.59;5063800;28;20052;-61
2023/07/10 05:30:35;;;;;;;11.15;5.38;;;;;;;18.78;100.00;101222.44;5071294;28;20033;-61
2023/07/10 05:33:03;;;;;;;16.05;5.82;;;;;;;18.28;100.00;101295.13;5071540;28;20056;-61
2023/07/10 05:35:33;;;;;;;;;;;;;;;17.73;100.00;101309.41;5071226;28;20056;-61
2023/07/10 05:37:59;;;;;;;16.02;7.28;;;;;;;16.90;100.00;101231.06;5068143;28;20257;-61
2023/07/10 05:40:25;;;;;;;14.38;5.70;;;;;;;16.83;100.00;101295.19;5069198;28;20052;-62
2023/07/10 05:42:52;;;;;;;14.48;7.05;;;;;;;16.70;100.00;101294.16;5071136;28;20075;-62
2023/07/10 05:45:19;;;;;;;14.80;7.35;;;;;;;16.58;100.00;101285.66;5070330;28;20053;-61
2023/07/10 05:47:46;;;;;;;15.93;8.02;;;;;;;16.56;100.00;101283.13;5069176;28;20104;-62
2023/07/10 05:50:12;;;;;;;14.77;8.23;;;;;;;16.47;100.00;101264.41;5070188;28;20041;-61
2023/07/10 05:52:39;;;;;;;13.60;8.25;;;;;;;16.13;100.00;101260.38;5069525;28;20071;-62
2023/07/10 05:55:05;;;;;;;16.95;7.40;;;;;;;15.80;100.00;101241.69;5069545;28;20079;-61
2023/07/10 05:57:32;;;;;;;14.68;8.50;;;;;;;15.60;100.00;101224.25;5069263;28;20040;-61
2023/07/10 05:59:58;;;;;;;16.73;8.38;;;;;;;15.33;100.00;101204.00;5067391;28;20045;-61
2023/07/10 06:02:25;;;;;;;17.58;8.63;;;;;;;15.21;100.00;101188.19;5066563;28;20072;-61
2023/07/10 06:04:52;;;;;;;21.70;8.93;;;;;;;15.09;100.00;101157.22;5066926;28;20117;-62
2023/07/10 06:07:19;;;;;;;19.23;8.70;;;;;;;14.87;100.00;101139.13;5065462;28;20095;-63
2023/07/10 06:09:45;;;;;;;20.55;10.02;;;;;;;14.79;100.00;101125.66;5064789;28;20052;-62
2023/07/10 06:12:12;;;;;;;29.65;10.05;;;;;;;14.80;100.00;101127.34;5068674;28;20044;-61
2023/07/10 06:14:38;;;;;;;30.58;11.60;;;;;;;14.85;100.00;101151.97;5072012;28;20440;-63
2023/07/10 06:17:05;;;;;;;27.42;9.70;;;;;;;14.91;100.00;101151.25;5073340;28;20052;-63
2023/07/10 06:19:32;;;;;;;18.77;9.50;;;;;;;14.91;100.00;101143.13;5073186;28;20041;-63
2023/07/10 06:22:07;;;;;;;20.48;9.45;;;;;;;14.96;100.00;101138.06;5074525;28;20049;-64
2023/07/10 06:24:34;;;;;;;20.85;10.40;;;;;;;15.05;100.00;101134.28;5075236;28;20052;-63
2023/07/10 06:27:02;;;;;;;16.67;10.10;;;;;;;15.12;100.00;101137.94;5073947;28;20079;-63
2023/07/10 06:29:29;;;;;;;16.42;9.25;;;;;;;15.19;100.00;101147.00;5073017;28;20025;-63
2023/07/10 06:31:55;;;;;;;20.70;10.00;;;;;;;15.40;100.00;101154.44;5073954;28;20158;-64
2023/07/10 06:34:22;;;;;;;21.77;11.10;;;;;;;15.57;100.00;101165.97;5073939;28;20047;-63
2023/07/10 06:36:49;;;;;;;16.65;8.68;;;;;;;15.60;100.00;101130.44;5075596;28;20092;-64
2023/07/10 06:39:15;;;;;;;21.52;8.63;;;;;;;15.55;100.00;101119.34;5072642;28;20041;-63
2023/07/10 06:41:42;;;;;;;19.88;8.57;;;;;;;15.64;100.00;101120.09;5074455;28;20055;-64
2023/07/10 06:44:08;;;;;;;34.10;9.45;;;;;;;15.83;100.00;101126.88;5075133;28;20032;-65
2023/07/10 06:46:35;;;;;;;22.48;9.27;;;;;;;15.85;100.00;101120.25;5074628;28;20467;-64
2023/07/10 06:49:02;;;;;;;18.83;8.50;;;;;;;15.87;100.00;101117.34;5074255;28;20049;-64
2023/07/10 06:51:28;;;;;;;24.60;8.88;;;;;;;15.98;100.00;101114.19;5073052;28;20095;-64
2023/07/10 06:53:55;;;;;;;17.20;8.02;;;;;;;15.92;100.00;101099.53;5072405;28;20060;-64
2023/07/10 06:56:22;;;;;;;18.77;8.23;;;;;;;16.02;100.00;101110.09;5072513;28;20045;-64
2023/07/10 06:58:48;;;;;;;18.40;8.35;;;;;;;16.05;100.00;101114.28;5069084;28;20049;-63
2023/07/10 07:01:15;;;;;;;21.00;8.15;;;;;;;16.06;100.00;101107.84;5069585;28;20040;-63
2023/07/10 07:03:41;;;;;;;28.40;9.15;;;;;;;16.17;100.00;101107.38;5070172;28;20044;-63
2023/07/10 07:06:08;;;;;;;23.02;8.80;;;;;;;16.43;100.00;101113.13;5069861;28;20052;-64
2023/07/10 07:08:35;;;;;;;13.43;7.45;;;;;;;16.56;100.00;101112.47;5068723;28;20037;-63
2023/07/10 07:11:01;;;;;;;18.27;8.18;;;;;;;16.77;100.00;101111.66;5067874;28;20045;-63
2023/07/10 07:13:28;;;;;;;25.77;8.27;;;;;;;16.84;100.00;101115.28;5068176;28;20049;-63
2023/07/10 07:15:56;;;;;;;15.82;7.78;;;;;;;16.85;100.00;101108.84;5068181;28;20045;-63
2023/07/10 07:18:24;;;;;;;22.48;8.30;;;;;;;16.92;100.00;101116.19;5067239;28;20083;-64
2023/07/10 07:23:35;;;;;;;16.13;7.05;;;;;;;17.25;100.00;101100.25;5504799;23;20055;-62
2023/07/10 07:26:02;;;;;;;19.20;7.03;;;;;;;17.29;100.00;101109.69;5014661;28;20050;-61
2023/07/10 07:28:29;;;;;;;22.00;7.50;;;;;;;17.32;100.00;101109.28;4995451;28;20457;-61
2023/07/10 07:31:04;;;;;;;17.08;7.78;;;;;;;17.82;100.00;101096.53;5002194;28;20088;-60
2023/07/10 07:33:31;;;;;;;13.98;6.60;;;;;;;18.33;100.00;101089.97;4998612;28;20043;-60
2023/07/10 07:36:02;;;;;;;12.60;6.97;;;;;;;18.89;100.00;101098.69;4995780;28;20046;-60
2023/07/10 07:38:29;;;;;;;17.77;6.97;;;;;;;19.25;100.00;101102.97;4994078;28;20073;-61
2023/07/10 07:40:58;;;;;;;16.15;7.35;;;;;;;19.55;100.00;101097.91;5011334;28;20072;-61
2023/07/10 07:43:24;;;;;;;16.45;6.82;;;;;;;19.70;100.00;101098.59;5009167;28;20054;-60
2023/07/10 07:45:56;;;;;;;12.75;6.35;;;;;;;20.02;100.00;101097.88;4993225;28;20054;-61
2023/07/10 07:48:24;;;;;;;15.15;6.28;;;;;;;19.95;100.00;101095.19;4994846;28;20050;-61
2023/07/10 07:51:00;;;;;;;14.60;6.63;;;;;;;20.27;100.00;101095.28;4994276;28;20065;-60
2023/07/10 07:53:27;;;;;;;11.23;6.57;;;;;;;20.24;100.00;101095.72;4991466;28;20068;-61
2023/07/10 07:55:54;;;;;;;11.80;6.72;;;;;;;20.41;100.00;101092.31;4995034;28;20113;-60
2023/07/10 07:58:20;;;;;;;12.13;6.60;;;;;;;20.80;100.00;101093.19;5013183;28;20054;-61
2023/07/10 08:00:49;;;;;;;11.45;5.93;;;;;;;21.37;100.00;101095.94;5012715;28;20456;-61
2023/07/10 08:03:16;;;;;;;10.48;6.25;;;;;;;21.25;100.00;101090.38;5014025;28;20108;-62
2023/07/10 08:05:43;;;;;;;18.92;6.38;;;;;;;21.84;100.00;101091.75;5013618;28;20096;-61
2023/07/10 08:08:13;;;;;;;10.20;6.60;;;;;;;22.32;100.00;101096.44;5012628;28;20042;-62
2023/07/10 08:10:47;;;;;;;9.70;5.53;;;;;;;23.05;97.93;101089.13;5011650;28;20076;-61
2023/07/10 08:13:15;;;;;;;15.35;5.72;;;;;;;23.34;96.72;101089.34;5012970;28;20061;-60
2023/07/10 08:15:43;;;;;;;14.82;6.55;;;;;;;24.10;87.05;101095.75;5012716;28;20042;-61
2023/07/10 08:18:10;;;;;;;9.68;6.10;;;;;;;24.35;82.53;101084.50;5006953;28;20046;-60
2023/07/10 08:20:36;;;;;;;11.45;5.82;;;;;;;24.06;74.04;101089.94;4992756;28;20390;-62
2023/07/10 08:23:04;;;;;;;9.93;5.93;;;;;;;24.13;75.41;101087.91;4999101;28;20049;-62
2023/07/10 08:25:31;;;;;;;13.88;5.43;;;;;;;24.16;78.08;101079.19;5012279;28;20046;-60
2023/07/10 08:27:58;;;;;;;15.20;6.00;;;;;;;24.61;75.30;101072.97;5011625;28;20053;-63
2023/07/10 08:30:26;;;;;;;16.33;5.97;;;;;;;24.95;73.43;101078.50;5016869;28;20045;-62
2023/07/10 08:32:53;;;;;;;10.65;5.55;;;;;;;25.54;70.67;101076.19;5032242;28;20045;-61
2023/07/10 08:35:19;;;;;;;6.97;5.63;;;;;;;25.06;67.07;101076.78;5032206;28;20042;-62
2023/07/10 08:37:47;;;;;;;7.90;5.63;;;;;;;25.03;66.29;101064.44;5032298;28;20570;-64
2023/07/10 08:40:26;;;;;;;9.70;5.57;;;;;;;25.08;67.53;101069.16;5033078;28;20045;-62
2023/07/10 08:42:52;;;;;;;9.93;5.47;;;;;;;25.55;65.76;101075.13;5016386;28;20049;-61
2023/07/10 08:45:35;;;;;;;11.38;5.80;;;;;;;25.98;62.51;101076.31;5016440;28;20054;-62
2023/07/10 08:48:22;;;;;;;9.55;5.30;;;;;;;26.74;57.30;101083.81;5017565;28;20049;-59
2023/07/10 08:50:50;;;;;;;13.43;5.40;;;;;;;26.77;56.40;101088.84;5016984;28;20042;-60
2023/07/10 08:53:24;;;;;;;11.90;5.40;;;;;;;27.23;56.62;101081.81;5016846;28;20114;-61
2023/07/10 08:56:14;;;;;;;11.75;5.70;;;;;;;27.57;53.85;101083.47;5016194;28;20045;-61
2023/07/10 08:58:41;;;;;;;12.32;5.85;;;;;;;27.47;52.67;101076.78;5016718;28;20096;-61
2023/07/10 09:01:18;;;;;;;11.30;5.30;;;;;;;27.73;51.64;101071.47;5016985;28;20046;-61
2023/07/10 09:03:49;;;;;;;12.88;6.00;;;;;;;27.35;50.74;101062.41;5017188;28;20137;-60
2023/07/10 09:06:39;;;;;;;16.60;5.95;;;;;;;27.55;52.66;101061.69;5016931;28;20038;-59
2023/07/10 09:09:43;;;;;;;11.90;5.27;;;;;;;27.60;51.23;101049.88;5017340;28;20076;-61
2023/07/10 09:12:25;;;;;;;9.45;5.72;;;;;;;27.59;52.06;101039.94;5000350;28;20100;-61
2023/07/10 09:14:58;;;;;;;13.07;5.47;;;;;;;28.11;51.43;101047.38;5016287;28;20046;-62
2023/07/10 09:17:49;;;;;;;21.27;6.10;;;;;;;28.51;48.64;101040.34;5017007;28;20073;-61
2023/07/10 09:20:19;;;;;;;8.73;5.40;;;;;;;28.36;48.47;101050.22;5015743;28;20068;-62
2023/07/10 09:22:57;;;;;;;15.48;5.80;;;;;;;28.51;47.41;101060.50;5015619;28;20485;-61
2023/07/10 09:25:24;;;;;;;8.82;5.55;;;;;;;28.81;46.10;101061.66;5014870;28;20558;-60
2023/07/10 09:27:51;;;;;;;11.93;5.55;;;;;;;28.60;45.59;101053.34;5014053;28;20181;-60
2023/07/10 09:30:30;;;;;;;7.85;5.53;;;;;;;28.76;45.84;101056.13;5017271;28;20455;-62
2023/07/10 09:33:04;;;;;;;9.40;5.00;;;;;;;29.28;43.96;101055.03;5033291;28;20076;-60
2023/07/10 09:35:33;;;;;;;10.95;4.93;;;;;;;29.40;43.60;101047.31;5034274;28;20053;-60
2023/07/10 09:38:00;;;;;;;8.93;5.25;;;;;;;29.80;44.07;101049.16;5034041;28;20096;-60
2023/07/10 09:40:39;;;;;;;6.93;5.22;;;;;;;30.58;41.84;101050.50;5033692;28;20049;-61
2023/07/10 09:43:19;;;;;;;6.53;4.53;;;;;;;31.06;40.49;101055.44;5033315;28;20048;-61
2023/07/10 09:45:49;;;;;;;8.13;5.72;;;;;;;31.50;39.75;101052.47;5033573;28;20133;-63
2023/07/10 09:48:39;;;;;;;8.70;5.30;;;;;;;31.48;39.02;101050.00;5026842;28;20092;-61
2023/07/10 09:51:07;;;;;;;10.77;4.72;;;;;;;31.62;38.27;101044.63;5012375;28;20085;-61
2023/07/10 09:53:45;;;;;;;8.65;4.88;;;;;;;30.46;39.90;101047.19;5013209;28;20104;-62
2023/07/10 09:56:26;;;;;;;9.90;5.40;;;;;;;31.07;39.88;101046.81;5012953;28;20401;-60
2023/07/10 09:58:55;;;;;;;9.52;5.20;;;;;;;31.51;39.09;101037.53;5013374;28;20489;-61
2023/07/10 10:01:30;;;;;;;7.35;5.10;;;;;;;32.28;37.74;101042.16;5013248;28;20042;-61
2023/07/10 10:04:00;;;;;;;8.20;5.78;;;;;;;32.85;36.62;101035.47;5013020;28;20080;-62
2023/07/10 10:06:29;;;;;;;8.43;5.50;;;;;;;32.93;37.51;101045.06;5013258;28;20051;-60
2023/07/10 10:08:56;;;;;;;9.85;5.38;;;;;;;33.17;36.89;101041.34;5012052;28;20053;-63
2023/07/10 10:11:37;;;;;;;8.82;4.90;;;;;;;33.04;37.22;101032.69;5013082;28;20096;-61
2023/07/10 10:14:09;;;;;;;8.90;4.63;;;;;;;33.48;36.58;101034.13;5013334;28;20049;-62
2023/07/10 10:16:45;;;;;;;8.93;5.00;;;;;;;34.36;35.39;101036.78;5013127;28;20072;-63
2023/07/10 10:19:19;;;;;;;9.75;5.20;;;;;;;34.54;34.74;101041.34;5012654;28;20038;-62
2023/07/10 10:21:46;;;;;;;14.52;5.15;;;;;;;34.08;34.90;101027.63;5013298;28;20578;-62
2023/07/10 10:24:13;;;;;;;10.57;4.97;;;;;;;34.52;33.69;101024.13;5012392;28;20046;-62
2023/07/10 10:26:59;;;;;;;7.10;4.45;;;;;;;34.80;33.25;101035.16;5012204;28;20457;-62
2023/07/10 10:29:38;;;;;;;7.68;4.13;;;;;;;34.13;33.12;101030.28;5012217;28;20049;-63
2023/07/10 10:32:31;;;;;;;6.13;4.75;;;;;;;33.43;34.18;101034.22;5030248;28;20497;-62
2023/07/10 10:35:30;;;;;;;5.50;4.38;;;;;;;31.53;36.68;101010.34;5019257;28;20046;-61
2023/07/10 10:38:35;;;;;;;7.15;4.10;;;;;;;30.59;37.59;101026.38;4978806;28;20093;-63
2023/07/10 10:41:21;;;;;;;5.93;4.15;;;;;;;31.11;37.09;101019.34;5011769;28;20041;-61
2023/07/10 10:43:58;;;;;;;6.47;4.40;;;;;;;30.99;37.27;101014.16;5011254;28;20049;-63
2023/07/10 10:46:31;;;;;;;6.55;4.55;;;;;;;31.86;36.38;101008.56;5011642;28;20045;-61
2023/07/10 10:49:10;;;;;;;10.13;4.30;;;;;;;32.30;36.17;101009.34;5011181;28;20057;-62
2023/07/10 10:51:55;;;;;;;5.47;4.32;;;;;;;32.69;35.11;101009.06;5011086;28;20452;-65
2023/07/10 10:54:38;;;;;;;7.13;5.00;;;;;;;32.78;35.33;101009.19;4992415;28;20069;-63
2023/07/10 10:57:21;;;;;;;9.70;5.43;;;;;;;32.52;36.65;101004.06;4991587;28;20104;-62
2023/07/10 11:00:00;;;;;;;13.65;4.97;;;;;;;33.01;36.51;100999.13;5008656;28;20148;-64
2023/07/10 11:02:51;;;;;;;6.25;4.07;;;;;;;33.51;35.12;101000.09;5011556;28;20049;-64
2023/07/10 11:05:41;;;;;;;8.50;5.30;;;;;;;33.50;35.70;101001.25;5010709;28;20141;-63
2023/07/10 11:08:32;;;;;;;9.75;4.82;;;;;;;33.05;34.94;101000.97;5011231;28;20448;-64
2023/07/10 11:11:04;;;;;;;12.13;5.45;;;;;;;33.41;34.75;101003.09;4991977;28;20050;-61
2023/07/10 11:13:34;;;;;;;10.63;5.90;;;;;;;33.05;34.47;101006.53;4991603;28;20456;-63
2023/07/10 11:16:03;;;;;;;8.05;4.70;;;;;;;32.59;35.23;101007.28;4991600;28;20046;-63
2023/07/10 11:18:31;;;;;;;10.68;5.25;;;;;;;32.11;36.45;101004.63;4991889;28;20050;-63
2023/07/10 11:21:01;;;;;;;8.43;5.65;;;;;;;31.54;37.64;101000.91;4991930;28;20062;-63
2023/07/10 11:23:43;;;;;;;10.13;5.10;;;;;;;31.13;38.60;101006.84;4989953;28;20038;-62
2023/07/10 11:26:17;;;;;;;8.75;5.47;;;;;;;30.85;39.75;101010.38;4991458;28;20073;-65
2023/07/10 11:28:50;;;;;;;13.18;5.72;;;;;;;30.81;40.12;101009.31;4991732;28;20054;-63
2023/07/10 11:31:33;;;;;;;7.32;5.80;;;;;;;30.17;41.75;101011.13;5017746;28;20111;-64
2023/07/10 11:34:05;;;;;;;10.43;7.03;;;;;;;29.59;43.69;101014.38;5030815;28;20132;-64
2023/07/10 11:36:40;;;;;;;12.57;6.82;;;;;;;29.59;44.97;101022.69;5030865;28;20076;-64
2023/07/10 11:39:07;;;;;;;10.57;7.82;;;;;;;29.26;46.97;101016.66;5022119;28;20058;-64